Date,TemperatureHighF,TemperatureAvgF,TemperatureLowF,DewpointHighF,DewpointAvgF,DewpointLowF,HumidityHigh,HumidityAvg,HumidityLow,PressureMaxIn,PressureMinIn,WindSpeedMaxMPH,WindSpeedAvgMPH,GustSpeedMaxMPH,PrecipitationSumIn
2013-9-1,82.5,69.6,64.1,70.7,66.2,63.0,98,90,60,29.02,28.85,15,1,15,0.53
2013-9-2,65.6,64.6,63.8,64.2,63.5,62.9,97,96,95,28.99,28.98,4,0,4,0.00
2013-9-7,79.3,66.6,58.0,66.5,61.8,57.4,99,85,65,29.34,29.17,2,0,4,0.00
2013-9-8,76.8,67.9,62.4,68.3,62.8,58.6,94,84,69,29.24,29.09,2,0,6,0.00
2013-9-9,80.1,68.4,61.5,68.8,63.7,60.1,95,86,64,29.34,29.20,1,0,4,0.00
2013-9-10,82.2,70.1,61.6,70.2,64.2,60.3,96,83,60,29.47,29.32,2,0,6,0.00
2013-9-11,82.3,69.6,62.4,69.1,63.7,58.6,93,82,56,29.45,29.23,2,0,7,0.06
2013-9-12,74.1,67.3,60.2,70.3,64.0,58.8,95,89,79,29.27,28.99,2,0,8,0.19
2013-9-13,72.9,59.7,53.0,63.0,54.4,48.7,99,83,58,29.18,28.99,6,0,9,0.07
2013-9-14,70.6,55.8,47.7,60.0,52.2,46.8,97,88,69,29.51,29.18,5,0,6,0.00
2013-9-15,75.2,61.7,52.4,62.3,55.5,51.3,97,82,55,29.59,29.43,11,1,11,0.00
2013-9-16,76.2,65.2,60.5,64.2,59.1,55.8,94,82,59,29.47,29.32,6,0,6,0.00
2013-9-17,65.9,60.2,56.3,59.5,56.7,54.0,95,88,74,29.62,29.42,4,0,6,0.00
2013-9-18,64.1,58.1,53.5,59.5,55.3,50.8,98,90,80,29.66,29.53,3,0,3,0.00
2013-9-19,76.8,63.7,56.3,65.7,60.3,55.8,99,90,66,29.56,29.35,6,0,8,0.00
2013-9-20,78.3,67.6,60.6,67.3,62.4,59.1,96,84,65,29.37,29.04,12,1,12,0.00
2013-9-21,65.5,61.6,56.6,61.8,59.2,56.2,99,92,84,29.07,28.82,21,3,23,1.00
2013-9-22,69.8,58.1,50.2,58.4,53.5,49.4,99,86,61,29.26,28.95,8,1,8,0.00
2013-9-23,75.5,59.4,51.1,60.5,55.1,50.1,98,87,55,29.39,29.25,5,0,5,0.00
2013-9-24,77.9,61.3,52.6,64.3,56.8,51.1,98,86,61,29.39,29.12,7,0,7,0.00
2013-9-25,60.2,57.9,55.5,59.1,57.5,55.5,100,99,96,29.19,29.05,3,0,3,1.58
2013-9-26,71.5,59.5,54.4,63.3,57.3,54.3,100,93,69,29.40,29.19,8,0,8,0.10
2013-9-27,74.0,59.5,50.6,60.8,55.0,50.3,99,87,57,29.56,29.39,5,0,5,0.00
2013-9-28,69.3,57.7,51.2,59.0,53.9,50.3,98,88,66,29.62,29.46,4,0,4,0.00
2013-9-29,54.5,52.7,51.2,52.8,50.9,49.2,94,94,92,29.54,29.52,2,0,2,0.00